Time;durP1;ratioP1;P1;durP2;ratioP2;P2;SDS_P1;SDS_P2;PMS_P1;PMS_P2;Temp;Humidity;BMP_temperature;BMP_pressure;BME280_temperature;BME280_humidity;BME280_pressure;Samples;Min_cycle;Max_cycle;Signal;HPM_P1;HPM_P2
2021/09/11 00:02:11;;;;;;;12.30;8.55;;;;;;;15.59;73.22;100134.09;1756227;82;21020;-92
2021/09/11 00:04:39;;;;;;;12.28;7.72;;;;;;;15.57;73.19;100134.75;1758275;81;21089;-92
2021/09/11 00:07:05;;;;;;;10.32;7.60;;;;;;;15.56;73.17;100137.05;1759174;81;21076;-92
2021/09/11 00:09:31;;;;;;;10.32;7.28;;;;;;;15.54;73.32;100133.22;1758083;81;21036;-92
2021/09/11 00:11:57;;;;;;;14.63;7.65;;;;;;;15.51;73.52;100132.19;1758002;82;21049;-92
2021/09/11 00:14:23;;;;;;;11.97;8.80;;;;;;;15.49;73.67;100138.13;1758118;81;21009;-92
2021/09/11 00:16:49;;;;;;;16.52;11.97;;;;;;;15.43;73.76;100143.56;1757756;81;21133;-92
2021/09/11 00:19:15;;;;;;;27.45;16.10;;;;;;;15.37;74.00;100138.83;1757943;81;21108;-92
2021/09/11 00:21:41;;;;;;;28.27;16.48;;;;;;;15.33;74.07;100135.27;1757783;81;21524;-92
2021/09/11 00:24:07;;;;;;;20.48;14.73;;;;;;;15.29;74.59;100137.88;1758151;82;21094;-92
2021/09/11 00:26:33;;;;;;;20.15;14.73;;;;;;;15.23;74.10;100135.30;1757955;81;20985;-92
2021/09/11 00:28:59;;;;;;;26.05;15.35;;;;;;;15.22;74.49;100136.30;1757951;82;20990;-92
2021/09/11 00:31:25;;;;;;;19.35;13.90;;;;;;;15.21;74.56;100136.80;1758173;82;21452;-92
2021/09/11 00:33:51;;;;;;;19.17;13.03;;;;;;;15.21;74.99;100141.28;1758011;82;21037;-93
2021/09/11 00:36:17;;;;;;;22.20;12.70;;;;;;;15.18;74.74;100133.59;1758040;82;20989;-92
2021/09/11 00:38:44;;;;;;;18.05;13.58;;;;;;;15.17;74.99;100130.10;1757888;82;21074;-92
2021/09/11 00:41:10;;;;;;;13.85;10.55;;;;;;;15.16;75.31;100131.56;1757860;82;21030;-92
2021/09/11 00:43:47;;;;;;;13.22;9.48;;;;;;;15.13;75.04;100127.86;1759582;81;21076;-92
2021/09/11 00:46:13;;;;;;;12.47;9.48;;;;;;;15.12;75.22;100127.03;1750367;81;21029;-92
2021/09/11 00:48:40;;;;;;;11.20;8.20;;;;;;;15.08;75.10;100126.98;1758019;81;21495;-92
2021/09/11 00:51:06;;;;;;;11.57;7.92;;;;;;;15.05;75.39;100135.24;1758121;82;21079;-93
2021/09/11 00:53:32;;;;;;;11.40;7.92;;;;;;;15.01;75.41;100129.38;1758053;81;21472;-92
2021/09/11 00:55:58;;;;;;;13.58;7.15;;;;;;;14.99;75.43;100125.19;1759837;81;21041;-92
2021/09/11 00:58:25;;;;;;;13.32;7.33;;;;;;;14.96;75.55;100122.81;1757944;81;21543;-92
2021/09/11 01:00:51;;;;;;;13.10;7.65;;;;;;;14.93;75.30;100123.94;1758074;81;21029;-93
2021/09/11 01:03:17;;;;;;;10.98;7.45;;;;;;;14.91;75.52;100123.27;1757922;81;21044;-93
2021/09/11 01:05:44;;;;;;;12.05;7.33;;;;;;;14.89;75.65;100118.57;1758091;81;21464;-92
2021/09/11 01:08:11;;;;;;;17.50;8.23;;;;;;;14.86;75.60;100121.52;1752992;82;21020;-92
2021/09/11 01:10:39;;;;;;;18.70;8.70;;;;;;;14.85;76.15;100121.67;1720513;83;21516;-92
2021/09/11 01:13:06;;;;;;;9.10;7.03;;;;;;;14.81;76.01;100130.42;1720400;83;20998;-92
2021/09/11 01:15:37;;;;;;;11.70;7.83;;;;;;;14.80;76.27;100129.22;1720586;83;21014;-92
2021/09/11 01:18:05;;;;;;;12.37;8.28;;;;;;;14.77;76.19;100126.35;1720322;83;21569;-92
2021/09/11 01:20:32;;;;;;;11.05;8.05;;;;;;;14.73;76.47;100126.30;1720557;83;21531;-92
2021/09/11 01:22:59;;;;;;;10.60;7.70;;;;;;;14.70;76.47;100126.58;1720474;83;21029;-92
2021/09/11 01:25:25;;;;;;;12.58;7.42;;;;;;;14.65;76.28;100127.52;1720556;83;21050;-92
2021/09/11 01:27:51;;;;;;;8.10;7.10;;;;;;;14.62;76.71;100119.34;1720341;83;20998;-92
2021/09/11 01:30:21;;;;;;;13.45;7.70;;;;;;;14.60;76.76;100117.30;1722240;83;21044;-92
2021/09/11 01:32:48;;;;;;;12.40;7.65;;;;;;;14.59;76.54;100122.77;1738977;82;21048;-91
2021/09/11 01:35:15;;;;;;;15.95;7.87;;;;;;;14.56;76.65;100116.41;1758150;81;21018;-93
2021/09/11 01:37:42;;;;;;;13.38;8.08;;;;;;;14.54;76.84;100120.52;1757984;82;21465;-92
2021/09/11 01:40:09;;;;;;;12.70;8.25;;;;;;;14.51;77.04;100119.02;1758065;82;20986;-93
2021/09/11 01:42:36;;;;;;;12.85;8.58;;;;;;;14.49;77.23;100118.27;1757918;82;21033;-93
2021/09/11 01:45:10;;;;;;;15.03;8.70;;;;;;;14.47;77.20;100124.20;1758170;81;21021;-92
2021/09/11 01:47:38;;;;;;;28.27;9.73;;;;;;;14.47;77.31;100122.04;1757952;81;21050;-92
2021/09/11 01:50:07;;;;;;;13.10;8.63;;;;;;;14.46;77.27;100120.38;1758137;81;21006;-92
2021/09/11 01:52:33;;;;;;;11.00;7.20;;;;;;;14.43;77.13;100117.50;1757895;81;21037;-92
2021/09/11 01:55:00;;;;;;;11.40;8.53;;;;;;;14.41;76.98;100112.84;1748475;81;20970;-93
2021/09/11 01:57:26;;;;;;;14.53;7.65;;;;;;;14.38;77.32;100118.90;1720439;83;21535;-92
2021/09/11 01:59:52;;;;;;;11.65;7.20;;;;;;;14.36;77.59;100123.53;1701471;82;21091;-92
2021/09/11 02:02:18;;;;;;;10.72;7.40;;;;;;;14.32;77.53;100122.97;1690308;84;21527;-92
2021/09/11 02:04:44;;;;;;;10.40;7.87;;;;;;;14.29;77.70;100124.58;1690771;84;21003;-92
2021/09/11 02:07:10;;;;;;;15.43;7.92;;;;;;;14.25;77.82;100118.72;1690761;84;21003;-92
2021/09/11 02:09:37;;;;;;;12.10;7.60;;;;;;;14.22;77.73;100126.95;1690958;84;21036;-91
2021/09/11 02:12:05;;;;;;;13.98;8.33;;;;;;;14.21;78.17;100127.91;1690481;84;21058;-92
2021/09/11 02:14:31;;;;;;;13.03;7.90;;;;;;;14.19;77.88;100131.21;1690680;85;21070;-92
2021/09/11 02:16:57;;;;;;;11.38;7.08;;;;;;;14.18;77.93;100119.39;1690591;84;21035;-93
2021/09/11 02:19:23;;;;;;;12.65;7.60;;;;;;;14.17;77.88;100131.83;1690912;84;21477;-92
2021/09/11 02:21:49;;;;;;;17.70;7.72;;;;;;;14.12;77.93;100131.91;1690520;84;21059;-92
2021/09/11 02:24:14;;;;;;;12.98;8.35;;;;;;;14.08;78.21;100128.21;1690918;85;21114;-92
2021/09/11 02:26:42;;;;;;;10.58;7.05;;;;;;;14.06;78.22;100116.89;1690766;84;21122;-93
2021/09/11 02:29:08;;;;;;;9.78;7.62;;;;;;;14.04;78.19;100111.36;1690842;85;21059;-92
2021/09/11 02:31:34;;;;;;;9.15;7.45;;;;;;;14.02;78.53;100111.52;1690630;85;21529;-92
2021/09/11 02:34:00;;;;;;;12.23;7.28;;;;;;;14.00;78.79;100116.11;1723622;83;21039;-92
2021/09/11 02:36:26;;;;;;;10.00;7.50;;;;;;;13.99;78.84;100118.42;1726985;81;20959;-92
2021/09/11 02:38:52;;;;;;;11.55;7.40;;;;;;;13.98;78.62;100111.42;1732268;81;21010;-92
2021/09/11 02:41:18;;;;;;;11.93;8.38;;;;;;;13.98;78.66;100112.75;1730693;83;21003;-92
2021/09/11 02:43:43;;;;;;;16.93;7.97;;;;;;;13.99;78.86;100112.28;1731103;83;21002;-92
2021/09/11 02:46:10;;;;;;;12.33;8.25;;;;;;;13.98;79.10;100112.75;1730738;83;20963;-93
2021/09/11 02:48:37;;;;;;;12.70;9.00;;;;;;;13.99;79.00;100114.94;1729929;83;21050;-93
2021/09/11 02:51:03;;;;;;;14.70;8.28;;;;;;;13.97;78.88;100118.20;1730316;83;21015;-92
2021/09/11 02:53:29;;;;;;;10.58;7.45;;;;;;;13.95;79.23;100114.38;1729957;83;21031;-92
2021/09/11 02:55:55;;;;;;;10.98;8.30;;;;;;;13.95;79.03;100114.38;1730325;83;21573;-92
2021/09/11 02:58:23;;;;;;;11.18;7.80;;;;;;;13.93;79.08;100115.48;1730082;83;21034;-93
2021/09/11 03:00:50;;;;;;;8.63;7.00;;;;;;;13.93;79.02;100116.31;1732363;82;21049;-92
2021/09/11 03:03:16;;;;;;;12.95;7.80;;;;;;;13.93;79.21;100116.81;1744379;81;20981;-92
2021/09/11 03:05:42;;;;;;;12.37;7.95;;;;;;;13.91;79.12;100111.63;1728157;83;21084;-92
2021/09/11 03:08:08;;;;;;;10.20;6.92;;;;;;;13.92;79.10;100115.98;1728020;83;21005;-92
2021/09/11 03:10:35;;;;;;;12.30;8.10;;;;;;;13.93;79.07;100115.48;1728365;83;20993;-92
2021/09/11 03:13:01;;;;;;;15.13;7.97;;;;;;;13.92;79.28;100114.66;1728123;83;21547;-93
2021/09/11 03:15:27;;;;;;;8.68;7.45;;;;;;;13.91;79.38;100115.61;1728085;83;21117;-92
2021/09/11 03:17:53;;;;;;;8.88;7.00;;;;;;;13.91;79.41;100116.94;1727930;83;21053;-92
2021/09/11 03:20:19;;;;;;;10.08;7.78;;;;;;;13.88;79.43;100110.58;1728223;83;20985;-92
2021/09/11 03:22:45;;;;;;;10.40;6.80;;;;;;;13.87;79.49;100108.91;1727996;83;20994;-93
2021/09/11 03:25:12;;;;;;;15.38;9.08;;;;;;;13.86;79.55;100110.39;1728090;83;21076;-93
2021/09/11 03:27:39;;;;;;;11.25;7.95;;;;;;;13.83;79.44;100111.49;1727965;83;21017;-92
2021/09/11 03:30:07;;;;;;;9.73;8.03;;;;;;;13.81;79.74;100114.76;1728021;83;21034;-92
2021/09/11 03:32:33;;;;;;;12.68;7.40;;;;;;;13.79;79.78;100114.08;1728566;82;21017;-92
2021/09/11 03:34:59;;;;;;;11.80;7.30;;;;;;;13.77;79.69;100112.03;1728145;83;21479;-92
2021/09/11 03:37:25;;;;;;;12.43;7.45;;;;;;;13.76;79.74;100109.88;1742984;82;20974;-92
2021/09/11 03:39:51;;;;;;;9.68;7.47;;;;;;;13.74;79.83;100107.84;1750287;82;21484;-92
2021/09/11 03:42:17;;;;;;;11.57;8.20;;;;;;;13.74;79.77;100108.33;1750195;82;21065;-92
2021/09/11 03:44:43;;;;;;;11.73;7.30;;;;;;;13.71;80.05;100108.11;1750582;82;20978;-92
2021/09/11 03:47:09;;;;;;;8.48;6.70;;;;;;;13.67;79.85;100100.09;1750125;82;21021;-93
2021/09/11 03:49:35;;;;;;;9.10;7.10;;;;;;;13.66;79.99;100101.56;1750442;82;21520;-92
2021/09/11 03:52:02;;;;;;;10.60;7.65;;;;;;;13.63;80.19;100105.32;1750273;82;21104;-93
2021/09/11 03:54:28;;;;;;;14.75;8.58;;;;;;;13.59;80.08;100109.22;1750568;81;21061;-93
2021/09/11 03:56:53;;;;;;;12.35;7.47;;;;;;;13.57;79.97;100109.84;1741612;82;21495;-93
2021/09/11 03:59:19;;;;;;;13.32;8.05;;;;;;;13.47;80.02;100103.18;1728023;83;21016;-92
2021/09/11 04:01:45;;;;;;;13.85;7.30;;;;;;;13.52;79.97;100115.55;1727886;83;21025;-93
2021/09/11 04:04:11;;;;;;;10.93;7.75;;;;;;;13.51;80.44;100117.83;1728072;83;21017;-93
2021/09/11 04:06:37;;;;;;;11.83;7.97;;;;;;;13.48;80.29;100112.80;1727813;83;21068;-92
2021/09/11 04:09:03;;;;;;;15.98;7.65;;;;;;;13.49;80.08;100110.98;1727993;83;21042;-94
2021/09/11 04:11:29;;;;;;;11.45;7.97;;;;;;;13.46;80.05;100118.74;1703830;83;20994;-93
2021/09/11 04:13:55;;;;;;;11.05;8.45;;;;;;;13.42;80.42;100108.03;1728197;83;20985;-92
2021/09/11 04:16:21;;;;;;;18.25;8.90;;;;;;;13.40;80.54;100116.62;1728021;83;21508;-93
2021/09/11 04:18:47;;;;;;;10.98;7.97;;;;;;;13.37;80.37;100111.10;1727968;83;21017;-93
2021/09/11 04:21:13;;;;;;;8.55;7.60;;;;;;;13.35;80.45;100114.36;1727917;83;21069;-89
2021/09/11 04:23:40;;;;;;;11.78;7.70;;;;;;;13.33;80.37;100108.37;1727904;83;21005;-92
2021/09/11 04:26:05;;;;;;;8.28;6.60;;;;;;;13.31;80.60;100112.96;1728098;83;21030;-92
2021/09/11 04:28:31;;;;;;;9.58;7.33;;;;;;;13.31;80.49;100115.61;1727934;83;21505;-92
2021/09/11 04:30:58;;;;;;;14.83;8.40;;;;;;;13.30;80.79;100115.76;1728177;83;21488;-92
2021/09/11 04:33:24;;;;;;;14.10;8.55;;;;;;;13.29;80.83;100125.52;1727725;83;21536;-91
2021/09/11 04:35:50;;;;;;;20.15;10.63;;;;;;;13.26;80.99;100120.48;1728171;83;21001;-93
2021/09/11 04:38:16;;;;;;;18.23;9.10;;;;;;;13.24;81.12;100119.77;1727819;83;21022;-92
2021/09/11 04:40:42;;;;;;;21.37;10.00;;;;;;;13.24;81.15;100118.91;1727958;83;21040;-92
2021/09/11 04:43:08;;;;;;;19.85;8.68;;;;;;;13.23;80.96;100118.56;1727891;83;21012;-93
2021/09/11 04:45:35;;;;;;;22.35;9.83;;;;;;;13.22;80.97;100117.70;1727750;83;21034;-92
2021/09/11 04:48:01;;;;;;;17.57;8.35;;;;;;;13.22;81.23;100125.64;1727852;83;21025;-92
2021/09/11 04:50:27;;;;;;;24.40;9.20;;;;;;;13.21;81.28;100123.14;1704009;83;21177;-93
2021/09/11 04:52:53;;;;;;;16.42;8.70;;;;;;;13.19;81.59;100124.58;1727854;83;21072;-93
2021/09/11 04:55:19;;;;;;;12.35;8.03;;;;;;;13.19;81.50;100127.72;1728051;83;21001;-93
2021/09/11 04:57:46;;;;;;;16.07;8.05;;;;;;;13.19;81.40;100126.40;1727929;83;21500;-93
2021/09/11 05:00:14;;;;;;;13.13;8.50;;;;;;;13.20;81.33;100119.66;1728044;83;21053;-92
2021/09/11 05:02:40;;;;;;;12.55;7.15;;;;;;;13.20;81.42;100121.47;1727604;83;21497;-92
2021/09/11 05:05:08;;;;;;;11.38;8.43;;;;;;;13.23;81.47;100118.56;1727995;83;21017;-93
2021/09/11 05:07:34;;;;;;;11.40;7.62;;;;;;;13.23;81.43;100119.89;1728015;83;21044;-92
2021/09/11 05:10:01;;;;;;;13.53;8.83;;;;;;;13.25;81.55;100121.93;1734747;82;20978;-92
2021/09/11 05:12:27;;;;;;;12.55;7.85;;;;;;;13.26;81.50;100124.92;1745260;81;21041;-92
2021/09/11 05:14:53;;;;;;;9.83;7.60;;;;;;;13.28;81.43;100125.64;1728087;83;21044;-93
2021/09/11 05:17:19;;;;;;;11.83;7.47;;;;;;;13.30;81.51;100130.33;1727810;83;21021;-92
2021/09/11 05:19:45;;;;;;;13.20;8.20;;;;;;;13.31;81.57;100128.86;1728210;83;21440;-92
2021/09/11 05:22:11;;;;;;;11.63;8.48;;;;;;;13.33;81.32;100121.63;1727921;83;21009;-93
2021/09/11 05:24:37;;;;;;;13.25;7.95;;;;;;;13.36;81.60;100127.15;1702278;83;21594;-93
2021/09/11 05:27:03;;;;;;;13.48;7.30;;;;;;;13.37;81.56;100133.62;1727933;83;21049;-93
2021/09/11 05:29:29;;;;;;;12.03;7.55;;;;;;;13.41;81.68;100134.69;1728203;83;20997;-93
2021/09/11 05:31:55;;;;;;;14.47;7.37;;;;;;;13.31;81.28;100119.58;1727826;83;21539;-93
2021/09/11 05:34:21;;;;;;;11.57;7.35;;;;;;;13.31;81.28;100119.58;1756448;82;21001;-92
2021/09/11 05:36:49;;;;;;;11.63;7.45;;;;;;;13.46;81.42;100139.08;1757775;82;21088;-93
2021/09/11 05:39:16;;;;;;;12.25;7.70;;;;;;;13.47;81.72;100139.45;1758072;82;21022;-93
2021/09/11 05:41:42;;;;;;;14.65;7.87;;;;;;;13.50;81.42;100140.52;1751727;81;20990;-92
2021/09/11 05:44:08;;;;;;;10.82;7.87;;;;;;;13.52;81.75;100142.06;1766322;81;21523;-93
2021/09/11 05:46:34;;;;;;;10.18;6.85;;;;;;;13.55;81.62;100138.28;1766231;81;21005;-93
2021/09/11 05:49:01;;;;;;;11.03;7.00;;;;;;;13.57;81.73;100135.85;1766346;81;21476;-93
2021/09/11 05:51:27;;;;;;;16.00;7.72;;;;;;;13.59;81.37;100135.24;1766442;81;20981;-93
2021/09/11 05:53:53;;;;;;;12.90;8.25;;;;;;;13.63;81.47;100129.18;1766296;81;21472;-92
2021/09/11 05:56:20;;;;;;;15.55;8.58;;;;;;;13.66;81.50;100133.38;1766467;81;20980;-93
2021/09/11 05:58:46;;;;;;;16.70;7.37;;;;;;;13.71;81.38;100133.80;1766329;81;21024;-93
2021/09/11 06:01:11;;;;;;;15.55;7.15;;;;;;;13.73;81.56;100130.03;1766636;81;20989;-93
2021/09/11 06:03:37;;;;;;;15.58;8.58;;;;;;;13.77;81.53;100135.41;1766356;81;21060;-92
2021/09/11 06:06:03;;;;;;;14.07;8.23;;;;;;;13.81;81.63;100133.33;1766482;81;21072;-92
2021/09/11 06:08:29;;;;;;;11.73;7.70;;;;;;;13.85;81.55;100134.72;1765979;81;20989;-93
2021/09/11 06:10:55;;;;;;;10.40;6.45;;;;;;;13.90;81.73;100136.48;1759372;81;20997;-94
2021/09/11 06:13:21;;;;;;;9.78;7.00;;;;;;;13.95;81.64;100136.06;1766308;81;20985;-92
2021/09/11 06:15:47;;;;;;;12.95;7.15;;;;;;;14.01;81.86;100136.84;1766378;81;21016;-92
2021/09/11 06:18:13;;;;;;;9.83;6.80;;;;;;;14.06;81.61;100138.61;1766165;81;21037;-92
2021/09/11 06:20:39;;;;;;;10.50;7.42;;;;;;;14.12;81.55;100141.20;1724408;81;21067;-92
2021/09/11 06:23:05;;;;;;;7.58;6.70;;;;;;;14.17;81.56;100138.46;1718994;83;21577;-93
2021/09/11 06:25:31;;;;;;;9.93;6.75;;;;;;;14.22;81.58;100136.73;1718905;83;21048;-93
2021/09/11 06:27:58;;;;;;;9.53;6.00;;;;;;;14.27;81.36;100141.13;1718871;83;21043;-93
2021/09/11 06:30:24;;;;;;;7.45;6.47;;;;;;;14.31;81.14;100138.06;1718853;83;21059;-93
2021/09/11 06:32:51;;;;;;;9.38;6.72;;;;;;;14.37;81.20;100145.94;1719106;83;21023;-93
2021/09/11 06:35:17;;;;;;;11.05;7.60;;;;;;;14.42;80.97;100142.39;1707612;83;21046;-92
2021/09/11 06:37:43;;;;;;;10.78;6.58;;;;;;;14.49;81.01;100140.00;1690202;85;21023;-93
2021/09/11 06:40:10;;;;;;;10.78;6.47;;;;;;;14.54;81.06;100146.61;1690279;85;20983;-93
2021/09/11 06:42:36;;;;;;;10.25;6.72;;;;;;;14.60;81.20;100142.53;1690166;85;21090;-92
2021/09/11 06:45:02;;;;;;;12.33;6.20;;;;;;;14.66;81.25;100143.79;1690409;85;21003;-94
2021/09/11 06:47:28;;;;;;;8.13;6.80;;;;;;;14.73;80.88;100149.70;1690022;85;21107;-93
2021/09/11 06:49:54;;;;;;;8.10;6.30;;;;;;;14.81;81.37;100146.36;1690374;85;20996;-94
2021/09/11 06:52:20;;;;;;;8.28;6.35;;;;;;;14.88;81.25;100146.13;1690230;85;21067;-94
2021/09/11 06:54:50;;;;;;;11.63;7.30;;;;;;;14.95;81.57;100139.25;1690630;85;21506;-84
2021/09/11 06:57:16;;;;;;;10.25;5.90;;;;;;;15.03;81.33;100143.84;1722518;82;21443;-84
2021/09/11 06:59:42;;;;;;;10.95;6.12;;;;;;;15.11;80.77;100147.95;1727500;83;21068;-84
2021/09/11 07:02:08;;;;;;;9.50;6.20;;;;;;;15.19;80.98;100145.89;1727300;83;21064;-84
2021/09/11 07:04:34;;;;;;;11.05;5.97;;;;;;;15.27;80.83;100144.69;1727665;83;21555;-85
2021/09/11 07:07:00;;;;;;;11.05;6.30;;;;;;;15.34;80.62;100148.43;1727270;83;21514;-84
2021/09/11 07:09:26;;;;;;;10.40;5.97;;;;;;;15.43;80.35;100144.03;1727695;83;21016;-84
2021/09/11 07:11:52;;;;;;;9.60;5.55;;;;;;;15.51;80.23;100141.49;1707459;83;21002;-84
2021/09/11 07:14:18;;;;;;;7.15;5.25;;;;;;;15.61;80.44;100145.44;1690464;85;21030;-84
2021/09/11 07:16:46;;;;;;;8.15;6.12;;;;;;;15.70;80.14;100145.91;1690597;85;21094;-94
2021/09/11 07:19:12;;;;;;;7.00;5.53;;;;;;;15.81;80.09;100144.36;1690202;85;21086;-95
2021/09/11 07:21:39;;;;;;;12.13;5.53;;;;;;;15.94;79.91;100144.84;1690505;85;21023;-93
2021/09/11 07:24:05;;;;;;;10.10;5.62;;;;;;;16.06;79.94;100143.30;1690785;85;21062;-93
2021/09/11 07:26:31;;;;;;;11.12;5.45;;;;;;;16.15;79.40;100150.36;1690750;83;21007;-90
2021/09/11 07:28:57;;;;;;;10.50;5.25;;;;;;;16.25;79.43;100152.45;1690460;85;21615;-86
2021/09/11 07:31:24;;;;;;;11.22;5.67;;;;;;;16.34;79.53;100153.38;1690278;85;21064;-89
2021/09/11 07:33:50;;;;;;;7.33;5.22;;;;;;;16.44;78.77;100155.95;1690257;85;21045;-88
2021/09/11 07:36:16;;;;;;;9.85;6.05;;;;;;;16.52;78.69;100147.55;1690228;85;21034;-88
2021/09/11 07:38:42;;;;;;;8.80;5.70;;;;;;;16.61;78.83;100149.77;1690031;85;21008;-88
2021/09/11 07:41:09;;;;;;;8.08;5.12;;;;;;;16.73;78.96;100153.86;1690070;85;21037;-87
2021/09/11 07:43:35;;;;;;;7.83;5.78;;;;;;;16.84;79.08;100156.80;1690045;85;21009;-88
2021/09/11 07:46:01;;;;;;;8.35;5.78;;;;;;;16.94;78.43;100156.70;1690305;85;20966;-88
2021/09/11 07:48:27;;;;;;;7.85;4.85;;;;;;;17.05;78.43;100151.95;1740334;82;21001;-89
2021/09/11 07:50:53;;;;;;;10.03;5.15;;;;;;;17.15;78.34;100159.02;1757481;81;21024;-89
2021/09/11 07:53:19;;;;;;;10.55;5.62;;;;;;;17.23;77.66;100161.20;1757364;81;20990;-88
2021/09/11 07:55:46;;;;;;;13.13;6.35;;;;;;;17.33;77.39;100164.59;1757219;82;21495;-90
2021/09/11 07:58:12;;;;;;;7.95;5.62;;;;;;;17.43;77.87;100168.47;1757442;82;21001;-88
2021/09/11 08:00:38;;;;;;;9.63;4.62;;;;;;;17.53;77.38;100169.19;1750217;81;20970;-85
2021/09/11 08:03:04;;;;;;;10.15;4.90;;;;;;;17.67;77.93;100172.23;1714127;81;21017;-84
2021/09/11 08:05:30;;;;;;;13.78;5.00;;;;;;;17.77;77.29;100169.00;1726150;81;21511;-80
2021/09/11 08:07:56;;;;;;;11.45;4.58;;;;;;;17.87;77.73;100167.50;1725158;82;20995;-81
2021/09/11 08:10:22;;;;;;;8.50;4.95;;;;;;;17.98;77.46;100165.38;1698806;83;20965;-82
2021/09/11 08:12:49;;;;;;;10.28;5.25;;;;;;;18.07;77.04;100168.08;1721479;83;21034;-79
2021/09/11 08:15:16;;;;;;;9.23;4.05;;;;;;;18.17;76.93;100171.44;1731668;82;20963;-83
2021/09/11 08:17:43;;;;;;;8.03;5.10;;;;;;;18.28;77.00;100169.27;1731545;83;21065;-82
2021/09/11 08:20:11;;;;;;;6.95;3.70;;;;;;;18.58;75.08;100174.97;1734517;81;20969;-80
2021/09/11 08:22:37;;;;;;;12.58;4.12;;;;;;;18.58;75.08;100174.97;1731500;81;20958;-80
2021/09/11 08:25:04;;;;;;;8.23;4.67;;;;;;;18.75;73.96;100170.48;1727621;83;21488;-81
2021/09/11 08:27:30;;;;;;;7.08;3.90;;;;;;;18.89;74.37;100171.67;1718800;83;21042;-82
2021/09/11 08:29:56;;;;;;;5.42;3.62;;;;;;;18.94;74.78;100155.42;1719196;83;21550;-84
2021/09/11 08:32:22;;;;;;;9.90;4.42;;;;;;;19.16;74.29;100173.12;1718817;83;20994;-84
2021/09/11 08:34:50;;;;;;;9.95;3.83;;;;;;;19.29;73.04;100169.41;1719050;83;21015;-81
2021/09/11 08:37:16;;;;;;;8.28;3.95;;;;;;;19.39;72.59;100164.69;1721145;81;21059;-79
2021/09/11 08:39:42;;;;;;;10.70;3.87;;;;;;;19.50;72.87;100174.69;1757525;82;21464;-79
2021/09/11 08:42:10;;;;;;;12.45;4.25;;;;;;;19.61;71.90;100172.48;1757219;81;21013;-80
2021/09/11 08:44:37;;;;;;;7.37;4.05;;;;;;;19.74;71.49;100175.11;1757350;82;21120;-79
2021/09/11 08:47:06;;;;;;;5.80;3.80;;;;;;;19.84;71.16;100175.25;1756957;82;21025;-84
2021/09/11 08:49:33;;;;;;;15.93;4.90;;;;;;;19.96;70.59;100172.16;1757421;81;21050;-80
2021/09/11 08:52:07;;;;;;;10.40;4.72;;;;;;;20.09;71.44;100175.93;1739940;81;21611;-81
2021/09/11 08:54:34;;;;;;;9.00;4.40;;;;;;;20.20;70.88;100177.36;1737668;82;20990;-79
2021/09/11 08:57:23;;;;;;;7.35;3.67;;;;;;;20.30;70.17;100179.80;1751704;82;21031;-81
2021/09/11 08:59:49;;;;;;;10.35;4.70;;;;;;;20.44;70.20;100180.91;1756363;81;21100;-81
2021/09/11 09:02:18;;;;;;;9.85;4.30;;;;;;;20.55;69.61;100180.00;1757018;81;20946;-82
2021/09/11 09:04:58;;;;;;;7.62;4.67;;;;;;;20.68;69.07;100175.88;1695909;81;21074;-81
2021/09/11 09:07:43;;;;;;;6.55;4.47;;;;;;;20.78;69.44;100179.14;1733521;82;21025;-82
2021/09/11 09:10:13;;;;;;;8.30;5.20;;;;;;;20.90;69.11;100176.88;1718694;83;21062;-79
2021/09/11 09:12:43;;;;;;;8.23;4.83;;;;;;;21.02;68.98;100180.24;1720795;82;21480;-81
2021/09/11 09:15:19;;;;;;;8.93;5.03;;;;;;;21.15;68.79;100180.13;1749395;82;21049;-81
2021/09/11 09:17:52;;;;;;;8.40;4.70;;;;;;;21.26;69.02;100175.15;1727558;81;22204;-79
2021/09/11 09:20:28;;;;;;;6.42;5.25;;;;;;;21.38;68.25;100182.25;1725534;83;21399;-81
2021/09/11 09:23:07;;;;;;;6.60;5.45;;;;;;;21.50;68.15;100171.89;1718603;83;21054;-81
2021/09/11 09:25:37;;;;;;;8.50;6.20;;;;;;;21.60;68.80;100178.32;1716213;83;21468;-79
2021/09/11 09:28:09;;;;;;;8.03;5.03;;;;;;;21.69;68.57;100177.20;1703592;82;21011;-81
2021/09/11 09:30:45;;;;;;;7.90;5.13;;;;;;;21.79;68.31;100181.77;1690388;84;21507;-80
2021/09/11 09:33:23;;;;;;;11.18;5.97;;;;;;;21.76;68.10;100153.95;1690293;84;21655;-82
2021/09/11 09:35:51;;;;;;;7.42;4.92;;;;;;;22.00;67.94;100175.09;1689705;85;21052;-81
2021/09/11 09:38:18;;;;;;;7.65;5.53;;;;;;;22.13;67.81;100174.92;1724587;81;21288;-80
2021/09/11 09:40:51;;;;;;;8.13;5.67;;;;;;;22.23;67.44;100178.98;1694441;82;21539;-80
2021/09/11 09:43:35;;;;;;;8.23;5.00;;;;;;;22.33;66.93;100175.98;1726246;81;20959;-81
2021/09/11 09:46:08;;;;;;;8.35;5.90;;;;;;;22.43;67.62;100175.15;1725237;82;21018;-82
2021/09/11 09:48:39;;;;;;;8.30;5.80;;;;;;;22.53;67.31;100177.52;1715067;83;21046;-81
2021/09/11 09:51:12;;;;;;;8.73;5.28;;;;;;;22.63;67.25;100173.16;1715937;82;21003;-81
2021/09/11 09:53:40;;;;;;;8.08;5.50;;;;;;;22.71;66.76;100169.83;1720811;82;21059;-81
2021/09/11 09:56:08;;;;;;;11.08;6.17;;;;;;;22.78;66.56;100170.41;1721344;81;20991;-82
2021/09/11 09:58:35;;;;;;;9.38;6.08;;;;;;;22.85;66.28;100171.28;1725537;81;20987;-84
2021/09/11 10:01:02;;;;;;;8.88;5.97;;;;;;;22.91;66.32;100159.23;1715692;83;21469;-84
2021/09/11 10:03:29;;;;;;;10.28;6.05;;;;;;;23.00;66.18;100157.75;1718709;83;21028;-82
2021/09/11 10:06:06;;;;;;;7.55;5.50;;;;;;;23.05;66.12;100162.87;1719338;83;21018;-83
2021/09/11 10:08:40;;;;;;;12.00;5.97;;;;;;;23.12;66.09;100166.43;1727619;83;21074;-84
2021/09/11 10:11:10;;;;;;;8.45;5.67;;;;;;;23.19;65.16;100159.75;1718115;83;21034;-83
2021/09/11 10:13:37;;;;;;;7.15;6.08;;;;;;;23.27;65.39;100165.51;1714050;82;21033;-83
2021/09/11 10:16:09;;;;;;;11.97;6.25;;;;;;;23.33;65.48;100161.51;1717007;81;20984;-82
2021/09/11 10:18:42;;;;;;;7.40;5.33;;;;;;;23.40;64.91;100165.06;1690008;84;21588;-83
2021/09/11 10:21:40;;;;;;;8.40;6.58;;;;;;;23.46;65.43;100157.20;1690198;84;21070;-83
2021/09/11 10:24:15;;;;;;;10.08;5.55;;;;;;;23.51;64.74;100159.62;1690062;85;21541;-83
2021/09/11 10:26:52;;;;;;;7.87;5.60;;;;;;;23.59;64.78;100156.77;1690060;84;21012;-83
2021/09/11 10:29:42;;;;;;;10.25;7.22;;;;;;;23.67;65.54;100162.49;1690431;84;21524;-82
2021/09/11 10:32:17;;;;;;;8.68;5.70;;;;;;;23.77;65.16;100162.16;1690046;84;21035;-80
2021/09/11 10:35:08;;;;;;;7.95;5.42;;;;;;;23.87;64.35;100162.59;1690097;85;21094;-82
2021/09/11 10:37:50;;;;;;;9.33;5.73;;;;;;;23.93;63.62;100159.63;1701031;83;20974;-83
2021/09/11 10:40:29;;;;;;;22.93;7.33;;;;;;;24.00;64.42;100167.20;1726307;83;20995;-82
2021/09/11 10:43:05;;;;;;;8.75;6.33;;;;;;;24.08;63.97;100164.31;1718152;83;21065;-83
2021/09/11 10:46:01;;;;;;;7.78;5.75;;;;;;;24.13;63.57;100160.50;1730329;82;21044;-86
2021/09/11 10:48:40;;;;;;;6.78;5.60;;;;;;;24.17;63.34;100161.75;1718640;82;21070;-83
2021/09/11 10:51:35;;;;;;;6.60;5.35;;;;;;;24.25;63.84;100159.37;1725520;83;21485;-83
2021/09/11 10:54:26;;;;;;;6.90;5.47;;;;;;;24.34;63.86;100160.31;1730794;83;20970;-83
2021/09/11 10:57:03;;;;;;;6.42;5.70;;;;;;;24.42;62.75;100155.30;1713383;83;21351;-84
2021/09/11 10:59:33;;;;;;;8.08;5.80;;;;;;;24.49;62.96;100155.30;1727571;83;21011;-83
2021/09/11 11:02:26;;;;;;;6.58;5.97;;;;;;;24.54;62.34;100156.84;1726641;83;21018;-82
2021/09/11 11:04:56;;;;;;;7.35;6.20;;;;;;;24.60;62.18;100154.67;1727630;81;21551;-82
2021/09/11 11:07:28;;;;;;;8.85;6.30;;;;;;;24.67;62.22;100157.38;1729927;81;20995;-83
2021/09/11 11:10:05;;;;;;;7.40;6.28;;;;;;;24.74;62.35;100154.15;1724201;83;21029;-81
2021/09/11 11:12:35;;;;;;;8.73;5.42;;;;;;;24.82;62.14;100152.61;1717708;83;21038;-83
2021/09/11 11:15:08;;;;;;;7.55;5.62;;;;;;;24.90;62.42;100144.80;1730255;83;20991;-83
2021/09/11 11:17:43;;;;;;;8.25;5.55;;;;;;;24.97;61.43;100145.09;1717618;81;22252;-85
2021/09/11 11:20:11;;;;;;;10.90;5.30;;;;;;;25.04;61.96;100142.39;1723162;83;20939;-83
2021/09/11 11:22:41;;;;;;;8.80;6.30;;;;;;;25.10;61.31;100142.90;1726061;83;21001;-83
2021/09/11 11:25:11;;;;;;;10.32;6.58;;;;;;;25.19;61.76;100139.50;1719831;82;20975;-85